Cartersville, GA (30121)

5:37 PM EDT on May 30, 2015 (GMT -0400)
Roving Hills | | Change Station
CLOSE
Current Station
Personal Weather Station
Location: Cartersville, GA
Elevation: 879 ft
Nearby Weather Stations

Elev 879 ft 34.20 °N, 84.78 °W | Updated 10 minutes ago

Clear
Clear
84.9 °F
Feels Like 86 °F
N
4.7
Wind Variable Wind from SSE

Today
High -- | Low -- °F
--% Chance of Precip.
Yesterday
High -- | Low -- °F
Precip. -- in
6:29 AM 8:44 PM
Waxing Gibbous, 92% visible
Pressure 30.05 in
Visibility 10.0 miles
Clouds Few 9000 ft
Heat Index 86 °F
Dew Point 64 °F
Humidity 49%
Rainfall 0.00 in
Snow Depth Not available.
UV 6 out of 12
Pollen 5.30 out of 12
Air Quality Not available.
Flu Activity Sporadic
METAR KVPC 302053Z AUTO 15006KT 10SM FEW090 29/17 A3008 RMK AO2 SLP175 T02890172 58020

More Conditions Fewer Conditions

Pressure 30.05 in
Visibility 10.0 miles
Clouds Few 9000 ft
Heat Index 86 °F
Dew Point 64 °F
Humidity 49%
Rainfall 0.00 in
Snow Depth Not available.
UV 6 out of 12
Pollen 5.30 out of 12
Air Quality Not available.
Flu Activity Sporadic
METAR KVPC 302053Z AUTO 15006KT 10SM FEW090 29/17 A3008 RMK AO2 SLP175 T02890172 58020

More Conditions Fewer Conditions

10-Day Weather Forecast

Almanac

Astronomy

May. 30, 2015 Rise Set
Actual Time
Civil Twilight
Nautical Twilight
Astronomical Twilight
Moon
Length of Visible Light
Length of Day
Tomorrow will be .
, % of the Moon is Illuminated

Today's Extremes

State Highs State Lows

Community

WunderPhotos

Upload Photos

1,825,606 photos uploaded!

WunderBlogs® & News

Nearby

Air Quality

  Air Quality AQ Index Pollutant
Not available.

Snow Depth

Station Depth Elevation

Earthquake Activity

City Distance Mag. Time & Date
Minimum magnitude displayed is 2.5.

Coastal Water Temperatures

Place Temperature

Stations

Nearby Weather Stations

Station Location Temp. Windchill Dew Point Humidity Wind Precip. Elev Updated Type